Aeroporto :
LOGIN :

Iscrizione | Disclaimer

   EN    FR    IT 

 










Sommario :    VFR   VFR Marginale   IFR   IFR Intensivo   IFR Molto Intensivo
Visibilità : 
Base nubi : 
>= 8 km
>= 3000ft
5 / 8 km
1000 / 3000 ft
1500m / 5 km
500 / 1000 ft
800 / 1500m
200 / 500 ft
< 800m
< 200 ft
Simboli :   Temporali  Nebbia  Neve Forte  Precipitazioni Forti  Vento > 20 kt
SIGMETs :   Varie  Temporali  Ghiacco  Turbolenza  Onda orograficha  Ceneri Vulcaniche






- Altitudine del aeroporto : 266 ft
- Codice IATA : NCL


EGNT - Newcastle

ULTIMO METAR :
  • 180250Z 25016KT 9999 FEW028 04/01 Q1006

METARs OBSOLETI :
  • 180220Z 26017KT 9999 FEW020 04/01 Q1007
  • 180150Z 25017KT 9999 FEW020 04/01 Q1006
  • 180120Z 26023KT 9999 FEW020 04/01 Q1006
  • 180020Z 27023G35KT 9999 SCT020 04/02 Q1005

TAF TAF EGNT
Valido dal 18 a 00 ore il 19 a 00 ore UTC


172300Z 1800/1824 26020G30KT 9999 SCT025
PROB30
TEMPO 1800/1806 8000 SHRA BKN014
TEMPO 1806/1824 6000 SHRA BKN014
PROB30
TEMPO 1814/1821 28025G40KT 3000 +SHRAGS BKN009 BKN020CB
ATIS : +44 191 214 3400



MetMap, La meteo Aeronautica in un colpo d'occhio ! - Copyright ORBIFLY Dicembre 2007 - Disclaimer

ORBIFLY MET'MAP TEAM :

Programmazione e sviluppo : Alexandra Zaïnal
Concezione : Baudouin d'Aumeries
Aiuto per la programmazione : Marc-Olivier Méhu
Supporto tecnico e logistico : Manuel Goepfert
Aiuto per la traduzione : Arnaldo La Scala

Contatto : metmap@orbifly.com




FONTI E CREDITI :

   NOAA